Latest Coastal Weather Observations for Arlington Reef

IDQ60701

Issued at 12:21 pm EST Thursday 21 February 2019 (issued every 10 minutes, with the page automatically refreshed every 10 minutes)

About coastal observations | Map of coastal stations | Coastal observations for QLD | Marine services | Other Formats
Station Details ID: 200879 Name: ARLINGTON REEF Lat: -16.72 Lon: 146.11 Height: 0.0 m
Data from the previous 72 hours. | See also: Recent months at Arlington Reef
Date/Time
EST
Wind Sea
Height
m
Swell Vis
km
Cloud Weather Temp
°C
Press
hPa
Rain since
9am
mm
Dir  Spd
kts
Gust
kts
Height
m
Period
s
Dir
21/12:00pm NW 2 3 - - - - - - - - 1006.2 -
21/11:30am NW 3 5 - - - - - - - - 1006.5 -
21/11:00am WNW 4 4 - - - - - - - - 1006.7 -
21/10:30am WNW 4 5 - - - - - - - - 1006.8 -
21/10:00am WSW 4 5 - - - - - - - - 1006.8 -
21/09:30am WSW 6 8 - - - - - - - - 1006.8 -
21/09:00am WSW 5 6 - - - - - - - - 1006.7 -
21/08:30am SW 6 8 - - - - - - - - 1006.5 -
21/08:00am SW 8 9 - - - - - - - - 1006.3 -
21/07:30am SW 5 7 - - - - - - - - 1006.1 -
21/07:00am SW 5 6 - - - - - - - - 1005.6 -
21/06:30am WSW 8 9 - - - - - - - - 1005.1 -
21/06:00am WSW 9 10 - - - - - - - - 1004.6 -
21/05:30am WSW 7 10 - - - - - - - - 1004.2 -
21/05:00am W 9 10 - - - - - - - - 1004.2 -
21/04:30am W 14 17 - - - - - - - - 1003.9 -
21/04:00am W 13 15 - - - - - - - - 1003.8 -
21/03:30am W 13 15 - - - - - - - - 1003.6 -
21/03:00am WNW 15 17 - - - - - - - - 1003.8 -
21/02:30am WNW 15 17 - - - - - - - - 1003.8 -
21/02:00am W 14 16 - - - - - - - - 1004.1 -
21/01:30am WNW 15 17 - - - - - - - - 1004.6 -
21/01:00am WNW 16 19 - - - - - - - - 1004.9 -
21/12:30am W 15 17 - - - - - - - - 1005.0 -
21/12:00am W 14 16 - - - - - - - - 1005.3 -
 
Date/Time
EST
Wind Sea
Height
m
Swell Vis
km
Cloud Weather Temp
°C
Press
hPa
Rain since
9am
mm
Dir  Spd
kts
Gust
kts
Height
m
Period
s
Dir
20/11:30pm W 12 14 - - - - - - - - 1005.6 -
20/11:00pm WNW 13 15 - - - - - - - - 1006.0 -
20/10:30pm WNW 13 15 - - - - - - - - 1006.1 -
20/10:00pm WNW 13 15 - - - - - - - - 1006.0 -
20/09:30pm WNW 14 15 - - - - - - - - 1005.6 -
20/09:00pm WNW 11 13 - - - - - - - - 1005.3 -
20/08:30pm WNW 12 13 - - - - - - - - 1005.0 -
20/08:00pm NNW 9 10 - - - - - - - - 1004.7 -
20/07:30pm NW 11 12 - - - - - - - - 1004.4 -
20/07:00pm NW 11 13 - - - - - - - - 1004.2 -
20/06:30pm WNW 12 15 - - - - - - - - 1003.8 -
20/06:00pm WNW 11 13 - - - - - - - - 1003.6 -
20/05:30pm WNW 13 15 - - - - - - - - 1003.3 -
20/05:00pm W 14 16 - - - - - - - - 1003.2 -
20/04:30pm WNW 14 16 - - - - - - - - 1003.1 -
20/04:00pm WNW 13 14 - - - - - - - - 1003.2 -
20/03:30pm W 13 15 - - - - - - - - 1003.2 -
20/03:00pm W 13 15 - - - - - - - - 1003.6 -
20/02:30pm W 12 14 - - - - - - - - 1003.8 -
20/02:00pm W 13 15 - - - - - - - - 1004.5 -
20/01:30pm WSW 10 13 - - - - - - - - 1005.2 -
20/01:00pm W 8 11 - - - - - - - - 1005.9 -
20/12:30pm W 9 11 - - - - - - - - 1006.5 -
20/12:00pm W 7 9 - - - - - - - - 1006.9 -
20/11:30am WNW 8 11 - - - - - - - - 1007.3 -
20/11:00am WNW 10 12 - - - - - - - - 1007.6 -
20/10:30am WNW 12 13 - - - - - - - - 1007.9 -
20/10:00am WNW 12 15 - - - - - - - - 1008.0 -
20/09:30am W 15 17 - - - - - - - - 1008.2 -
20/09:00am W 17 20 - - - - - - - - 1008.1 -
20/08:30am WNW 20 23 - - - - - - - - 1008.1 -
20/08:00am W 20 23 - - - - - - - - 1007.9 -
20/07:30am W 21 26 - - - - - - - - 1007.8 -
20/07:00am WNW 21 24 - - - - - - - - 1007.6 -
20/06:30am WNW 21 25 - - - - - - - - 1007.5 -
20/06:00am W 20 23 - - - - - - - - 1007.1 -
20/05:30am W 19 23 - - - - - - - - 1007.1 -
20/05:00am W 21 25 - - - - - - - - 1006.9 -
20/04:30am W 16 19 - - - - - - - - 1006.9 -
20/04:00am W 18 21 - - - - - - - - 1006.9 -
20/03:30am WNW 11 13 - - - - - - - - 1006.9 -
20/03:00am N 11 12 - - - - - - - - 1006.2 -
20/02:30am N 12 14 - - - - - - - - 1006.2 -
20/02:00am NNE 16 19 - - - - - - - - 1006.2 -
20/01:30am NE 14 16 - - - - - - - - 1007.0 -
20/01:00am ESE 17 22 - - - - - - - - 1007.1 -
20/12:30am SW 16 19 - - - - - - - - 1006.8 -
20/12:00am W 16 18 - - - - - - - - 1006.6 -
 
Date/Time
EST
Wind Sea
Height
m
Swell Vis
km
Cloud Weather Temp
°C
Press
hPa
Rain since
9am
mm
Dir  Spd
kts
Gust
kts
Height
m
Period
s
Dir
19/11:30pm W 21 25 - - - - - - - - 1007.1 -
19/11:00pm W 20 24 - - - - - - - - 1007.3 -
19/10:30pm W 16 18 - - - - - - - - 1007.3 -
19/10:00pm WNW 17 20 - - - - - - - - 1007.4 -
19/09:30pm WNW 16 19 - - - - - - - - 1007.4 -
19/09:00pm W 18 22 - - - - - - - - 1006.8 -
19/08:30pm WNW 17 21 - - - - - - - - 1006.4 -
19/08:00pm WNW 20 24 - - - - - - - - 1006.4 -
19/07:30pm WNW 16 18 - - - - - - - - 1005.8 -
19/07:00pm WNW 13 15 - - - - - - - - 1005.7 -
19/06:30pm WNW 15 18 - - - - - - - - 1005.6 -
19/06:00pm WNW 16 19 - - - - - - - - 1005.7 -
19/05:30pm WNW 16 19 - - - - - - - - 1005.7 -
19/05:00pm WNW 17 20 - - - - - - - - 1005.4 -
19/04:30pm NW 13 17 - - - - - - - - 1005.6 -
19/04:00pm WNW 13 16 - - - - - - - - 1005.7 -
19/03:30pm NNW 8 10 - - - - - - - - 1005.2 -
19/03:00pm NNE 7 8 - - - - - - - - 1005.0 -
19/02:30pm N 8 9 - - - - - - - - 1005.2 -
19/02:00pm N 10 11 - - - - - - - - 1005.6 -
19/01:30pm N 10 11 - - - - - - - - 1006.3 -
19/01:00pm N 8 9 - - - - - - - - 1006.7 -
19/12:30pm N 9 10 - - - - - - - - 1007.3 -
19/12:00pm NNW 8 9 - - - - - - - - 1007.9 -
19/11:30am NW 9 10 - - - - - - - - 1008.3 -
19/11:00am NW 11 13 - - - - - - - - 1008.6 -
19/10:30am WNW 13 14 - - - - - - - - 1008.9 -
19/10:00am WNW 13 15 - - - - - - - - 1009.1 -
19/09:30am WNW 14 16 - - - - - - - - 1009.3 -
19/09:00am W 13 14 - - - - - - - - 1009.3 -
19/08:30am WNW 12 16 - - - - - - - - 1009.4 -
19/08:00am WNW 9 11 - - - - - - - - 1009.1 -
19/07:30am NW 10 12 - - - - - - - - 1009.0 -
19/07:00am NW 10 12 - - - - - - - - 1008.8 -
19/06:30am NW 11 12 - - - - - - - - 1008.6 -
19/06:00am NW 10 12 - - - - - - - - 1008.4 -
19/05:30am NNW 10 13 - - - - - - - - 1008.5 -
19/05:00am N 11 14 - - - - - - - - 1008.3 -
19/04:30am N 13 16 - - - - - - - - 1008.4 -
19/04:00am NNW 13 16 - - - - - - - - 1008.2 -
19/03:30am N 13 15 - - - - - - - - 1008.1 -
19/03:00am N 13 15 - - - - - - - - 1008.0 -
19/02:30am NNW 13 15 - - - - - - - - 1008.5 -
19/02:00am NNW 12 14 - - - - - - - - 1008.6 -
19/01:30am NNW 14 17 - - - - - - - - 1008.7 -
19/01:00am NNW 12 14 - - - - - - - - 1009.0 -
19/12:30am N 11 13 - - - - - - - - 1009.6 -
19/12:00am N 9 12 - - - - - - - - 1009.7 -
 
Date/Time
EST
Wind Sea
Height
m
Swell Vis
km
Cloud Weather Temp
°C
Press
hPa
Rain since
9am
mm
Dir  Spd
kts
Gust
kts
Height
m
Period
s
Dir
18/11:30pm N 10 12 - - - - - - - - 1009.6 -
18/11:00pm N 9 12 - - - - - - - - 1010.0 -
18/10:30pm NNW 9 11 - - - - - - - - 1010.3 -
18/10:00pm N 8 9 - - - - - - - - 1009.9 -
18/09:30pm NNW 6 8 - - - - - - - - 1009.7 -
18/09:00pm NNW 6 7 - - - - - - - - 1009.6 -
18/08:30pm NNW 6 7 - - - - - - - - 1009.4 -
18/08:00pm NNW 6 9 - - - - - - - - 1009.2 -
18/07:30pm N 7 9 - - - - - - - - 1008.9 -
18/07:00pm N 6 7 - - - - - - - - 1008.4 -
18/06:30pm N 6 8 - - - - - - - - 1008.1 -
18/06:00pm N 5 6 - - - - - - - - 1007.7 -
18/05:30pm NNE 5 7 - - - - - - - - 1007.4 -
18/05:00pm NNE 5 7 - - - - - - - - 1007.2 -
18/04:30pm NNE 6 9 - - - - - - - - 1007.3 -
18/04:00pm NNE 8 10 - - - - - - - - 1007.2 -
18/03:30pm NNE 7 9 - - - - - - - - 1007.6 -
18/03:00pm NNE 8 10 - - - - - - - - 1007.8 -
18/02:30pm NNE 8 9 - - - - - - - - 1008.1 -
18/02:00pm NNE 7 9 - - - - - - - - 1008.6 -
18/01:30pm N 6 8 - - - - - - - - 1009.1 -
18/01:00pm N 5 7 - - - - - - - - 1009.5 -
18/12:30pm N 4 5 - - - - - - - - 1010.1 -

Other formats

Comma delimited format used in spreadsheet applications
http://www.bom.gov.au/fwo/IDQ60701/IDQ60701.94284.axf

JavaScript Object Notation format (JSON) in row-major order
http://www.bom.gov.au/fwo/IDQ60701/IDQ60701.94284.json

Data quality

Most of these data are generated automatically and are frequently updated. Quality checks on data are not normally performed. It is possible for incorrect values to appear. Refer to information at About Latest Weather Observations and please check the disclaimer before using these data.